Guenther Schulte — VRGK8 — position and weather

sailwx.info

Track history (hours):
 
Tides and Currents Weather Stations Pressure Air Temp Water Temp Dewpoint Dewpoint Depression Visibility Wind Speed Wind Dir Waves Ship Positions

Guenther Schulte

Last reported at 2016-Jun-25 02:33 UTC. Time now 2016-Jun-25 03:35 UTC.
Position N 34°18' W 120°29'.

Length 231 m; draft 10.4 m.

Type: Ship (hazmat cat C). MMSI: 477728800.

Date/timePositionNaut miles runAvg speedWind from/ knotsBaromVisibWave heightAir tempDewpointWater temp
2016-Jun-25 02:33N 34°18' W 120°29'1615.7
2016-Jun-25 01:33N 34°23' W 120°47'1514.9
2016-Jun-25 00:32N 34°31' W 121°03'1616.3
2016-Jun-24 23:33N 34°45' W 121°11'1717.2
2016-Jun-24 22:33N 35°00' W 121°20'1717.3
2016-Jun-24 21:33N 35°16' W 121°30'1717.0
2016-Jun-24 20:33N 35°31' W 121°39'1716.6
2016-Jun-24 19:34N 35°46' W 121°47'1817.3
2016-Jun-24 18:32N 36°02' W 121°57'1616.7
2016-Jun-24 17:33N 36°17' W 122°07'1716.7
2016-Jun-24 16:33N 36°32' W 122°16'1716.9
2016-Jun-24 15:33N 36°47' W 122°25'1716.7
2016-Jun-24 14:33N 37°02' W 122°34'1716.9
2016-Jun-24 13:34N 37°17' W 122°43'1716.9
2016-Jun-24 12:34N 37°34' W 122°44'1313.1
2016-Jun-24 11:33N 37°46' W 122°38'1212.3
2016-Jun-24 10:34N 37°48' W 122°23'3 3.2
2016-Jun-24 09:31N 37°48' W 122°18'0 0.0
2016-Jun-24 08:31N 37°48' W 122°18'0 0.0
2016-Jun-24 07:31N 37°48' W 122°18'0 0.0
2016-Jun-24 04:31N 37°48' W 122°18'0 0.0
2016-Jun-24 03:31N 37°48' W 122°18'0 0.0
2016-Jun-24 02:25N 37°48' W 122°18'0 0.0
2016-Jun-24 01:31N 37°48' W 122°18'0 0.0
2016-Jun-24 00:31N 37°48' W 122°18'0 0.0
2016-Jun-23 23:31N 37°48' W 122°18'0 0.0
2016-Jun-23 22:31N 37°48' W 122°18'0 0.0
2016-Jun-23 21:31N 37°48' W 122°18'0 0.0
2016-Jun-23 20:25N 37°48' W 122°18'0 0.0
2016-Jun-23 19:31N 37°48' W 122°18'0 0.0
2016-Jun-23 18:31N 37°48' W 122°18'0 0.0
2016-Jun-23 17:31N 37°48' W 122°18'0 0.0
2016-Jun-23 16:31N 37°48' W 122°18'0 0.0
2016-Jun-23 15:31N 37°48' W 122°18'0 0.0
2016-Jun-23 14:31N 37°48' W 122°18'0 0.0
2016-Jun-23 13:31N 37°48' W 122°18'0 0.4
2016-Jun-23 12:33N 37°48' W 122°18'3 2.7
2016-Jun-23 11:33N 37°48' W 122°21'1211.6
2016-Jun-23 10:33N 37°46' W 122°36'9 8.9
2016-Jun-23 09:33N 37°42' W 122°45'5 5.1
2016-Jun-23 08:33N 37°38' W 122°50'7 7.2
2016-Jun-23 07:33N 37°34' W 122°58'18 8.8
2016-Jun-23 05:33N 37°25' W 123°16'7 6.7
2016-Jun-23 04:33N 37°20' W 123°22'1 1.3
2016-Jun-23 03:33N 37°18' W 123°22'2 1.7
2016-Jun-23 02:33N 37°20' W 123°23'2 1.9
2016-Jun-23 01:33N 37°22' W 123°23'2 1.6
2016-Jun-23 00:33N 37°23' W 123°23'2 1.6
2016-Jun-22 23:33N 37°25' W 123°24'2 1.5
2016-Jun-22 22:33N 37°27' W 123°24'2 1.6
2016-Jun-22 21:33N 37°28' W 123°23'2 1.7
2016-Jun-22 20:33N 37°30' W 123°23'0 0.3
2016-Jun-22 19:33N 37°30' W 123°24'1110.5
2016-Jun-22 18:33N 37°21' W 123°30'1110.6
2016-Jun-22 17:33N 37°12' W 123°38'1110.6
2016-Jun-22 16:33N 37°04' W 123°46'1111.0
2016-Jun-22 15:33N 36°55' W 123°55'1515.4
2016-Jun-22 14:33N 36°45' W 124°09'1515.2
2016-Jun-22 13:33N 36°34' W 124°22'1515.3
2016-Jun-22 12:33N 36°24' W 124°36'1515.5
2016-Jun-22 11:33N 36°13' W 124°50'1615.8
2016-Jun-22 10:33N 36°02' W 125°04'1615.7
2016-Jun-22 09:33N 35°51' W 125°18'1715.8
2016-Jun-22 08:28N 35°39' W 125°33'3115.9
2016-Jun-22 06:33N 35°18' W 126°00'1414.1
2016-Jun-22 05:31N 35°07' W 126°13'2511.7
2016-Jun-22 03:22N 34°50' W 126°35'1011.6
2016-Jun-22 02:31N 34°43' W 126°43'1111.6
2016-Jun-22 01:33N 34°35' W 126°53'1110.6
2016-Jun-22 00:33N 34°28' W 127°01'1010.2
2016-Jun-21 23:33N 34°20' W 127°09'1010.1
2016-Jun-21 22:33N 34°12' W 127°17'1110.2
2016-Jun-21 21:31N 34°03' W 127°24'10 9.9
2016-Jun-21 20:33N 33°56' W 127°31'1010.2
2016-Jun-21 19:31N 33°47' W 127°39'1010.2
2016-Jun-21 18:33N 33°39' W 127°46'1010.5
2016-Jun-21 17:33N 33°31' W 127°54'1110.5
2016-Jun-21 16:33N 33°22' W 128°01'1414.0
2016-Jun-21 15:33N 33°11' W 128°11'1514.7
2016-Jun-21 14:33N 32°60' W 128°22'1515.0
2016-Jun-21 13:33N 32°48' W 128°33'1515.0
2016-Jun-21 12:33N 32°36' W 128°43'1614.9
2016-Jun-21 11:30N 32°23' W 128°54'1415.0
2016-Jun-21 10:33N 32°12' W 129°04'1515.0
2016-Jun-21 09:33N 31°60' W 129°15'1715.1
2016-Jun-21 08:26N 31°46' W 129°27'1315.1
2016-Jun-21 07:33N 31°36' W 129°37'3115.3
2016-Jun-21 05:33N 31°11' W 129°58'1515.4
2016-Jun-21 04:33N 30°59' W 130°08'1915.4
2016-Jun-21 03:20N 30°44' W 130°22'2614.8
2016-Jun-21 01:33N 30°23' W 130°40'1512.0
2016-Jun-21 00:19N 30°11' W 130°51'  
Track history (hours):
 
Tides and Currents Weather Stations Pressure Air Temp Water Temp Dewpoint Dewpoint Depression Visibility Wind Speed Wind Dir Waves Ship Positions

Guenther Schulte

Last reported at 2016-Jun-25 02:33 UTC. Time now 2016-Jun-25 03:35 UTC.
Position N 34°18' W 120°29'.

Length 231 m; draft 10.4 m.

Type: Ship (hazmat cat C). MMSI: 477728800.

Date/timePositionNaut miles runAvg speedWind from/ knotsBaromVisibWave heightAir tempDewpointWater temp
2016-Jun-25 02:33N 34°18' W 120°29'1615.7
2016-Jun-25 01:33N 34°23' W 120°47'1514.9
2016-Jun-25 00:32N 34°31' W 121°03'1616.3
2016-Jun-24 23:33N 34°45' W 121°11'1717.2
2016-Jun-24 22:33N 35°00' W 121°20'1717.3
2016-Jun-24 21:33N 35°16' W 121°30'1717.0
2016-Jun-24 20:33N 35°31' W 121°39'1716.6
2016-Jun-24 19:34N 35°46' W 121°47'1817.3
2016-Jun-24 18:32N 36°02' W 121°57'1616.7
2016-Jun-24 17:33N 36°17' W 122°07'1716.7
2016-Jun-24 16:33N 36°32' W 122°16'1716.9
2016-Jun-24 15:33N 36°47' W 122°25'1716.7
2016-Jun-24 14:33N 37°02' W 122°34'1716.9
2016-Jun-24 13:34N 37°17' W 122°43'1716.9
2016-Jun-24 12:34N 37°34' W 122°44'1313.1
2016-Jun-24 11:33N 37°46' W 122°38'1212.3
2016-Jun-24 10:34N 37°48' W 122°23'3 3.2
2016-Jun-24 09:31N 37°48' W 122°18'0 0.0
2016-Jun-24 08:31N 37°48' W 122°18'0 0.0
2016-Jun-24 07:31N 37°48' W 122°18'0 0.0
2016-Jun-24 04:31N 37°48' W 122°18'0 0.0
2016-Jun-24 03:31N 37°48' W 122°18'0 0.0
2016-Jun-24 02:25N 37°48' W 122°18'0 0.0
2016-Jun-24 01:31N 37°48' W 122°18'0 0.0
2016-Jun-24 00:31N 37°48' W 122°18'0 0.0
2016-Jun-23 23:31N 37°48' W 122°18'0 0.0
2016-Jun-23 22:31N 37°48' W 122°18'0 0.0
2016-Jun-23 21:31N 37°48' W 122°18'0 0.0
2016-Jun-23 20:25N 37°48' W 122°18'0 0.0
2016-Jun-23 19:31N 37°48' W 122°18'0 0.0
2016-Jun-23 18:31N 37°48' W 122°18'0 0.0
2016-Jun-23 17:31N 37°48' W 122°18'0 0.0
2016-Jun-23 16:31N 37°48' W 122°18'0 0.0
2016-Jun-23 15:31N 37°48' W 122°18'0 0.0
2016-Jun-23 14:31N 37°48' W 122°18'0 0.0
2016-Jun-23 13:31N 37°48' W 122°18'0 0.4
2016-Jun-23 12:33N 37°48' W 122°18'3 2.7
2016-Jun-23 11:33N 37°48' W 122°21'1211.6
2016-Jun-23 10:33N 37°46' W 122°36'9 8.9
2016-Jun-23 09:33N 37°42' W 122°45'5 5.1
2016-Jun-23 08:33N 37°38' W 122°50'7 7.2
2016-Jun-23 07:33N 37°34' W 122°58'18 8.8
2016-Jun-23 05:33N 37°25' W 123°16'7 6.7
2016-Jun-23 04:33N 37°20' W 123°22'1 1.3
2016-Jun-23 03:33N 37°18' W 123°22'2 1.7
2016-Jun-23 02:33N 37°20' W 123°23'2 1.9
2016-Jun-23 01:33N 37°22' W 123°23'2 1.6
2016-Jun-23 00:33N 37°23' W 123°23'2 1.6
2016-Jun-22 23:33N 37°25' W 123°24'2 1.5
2016-Jun-22 22:33N 37°27' W 123°24'2 1.6
2016-Jun-22 21:33N 37°28' W 123°23'2 1.7
2016-Jun-22 20:33N 37°30' W 123°23'0 0.3
2016-Jun-22 19:33N 37°30' W 123°24'1110.5
2016-Jun-22 18:33N 37°21' W 123°30'1110.6
2016-Jun-22 17:33N 37°12' W 123°38'1110.6
2016-Jun-22 16:33N 37°04' W 123°46'1111.0
2016-Jun-22 15:33N 36°55' W 123°55'1515.4
2016-Jun-22 14:33N 36°45' W 124°09'1515.2
2016-Jun-22 13:33N 36°34' W 124°22'1515.3
2016-Jun-22 12:33N 36°24' W 124°36'1515.5
2016-Jun-22 11:33N 36°13' W 124°50'1615.8
2016-Jun-22 10:33N 36°02' W 125°04'1615.7
2016-Jun-22 09:33N 35°51' W 125°18'1715.8
2016-Jun-22 08:28N 35°39' W 125°33'3115.9
2016-Jun-22 06:33N 35°18' W 126°00'1414.1
2016-Jun-22 05:31N 35°07' W 126°13'2511.7
2016-Jun-22 03:22N 34°50' W 126°35'1011.6
2016-Jun-22 02:31N 34°43' W 126°43'1111.6
2016-Jun-22 01:33N 34°35' W 126°53'1110.6
2016-Jun-22 00:33N 34°28' W 127°01'1010.2
2016-Jun-21 23:33N 34°20' W 127°09'1010.1
2016-Jun-21 22:33N 34°12' W 127°17'1110.2
2016-Jun-21 21:31N 34°03' W 127°24'10 9.9
2016-Jun-21 20:33N 33°56' W 127°31'1010.2
2016-Jun-21 19:31N 33°47' W 127°39'1010.2
2016-Jun-21 18:33N 33°39' W 127°46'1010.5
2016-Jun-21 17:33N 33°31' W 127°54'1110.5
2016-Jun-21 16:33N 33°22' W 128°01'1414.0
2016-Jun-21 15:33N 33°11' W 128°11'1514.7
2016-Jun-21 14:33N 32°60' W 128°22'1515.0
2016-Jun-21 13:33N 32°48' W 128°33'1515.0
2016-Jun-21 12:33N 32°36' W 128°43'1614.9
2016-Jun-21 11:30N 32°23' W 128°54'1415.0
2016-Jun-21 10:33N 32°12' W 129°04'1515.0
2016-Jun-21 09:33N 31°60' W 129°15'1715.1
2016-Jun-21 08:26N 31°46' W 129°27'1315.1
2016-Jun-21 07:33N 31°36' W 129°37'3115.3
2016-Jun-21 05:33N 31°11' W 129°58'1515.4
2016-Jun-21 04:33N 30°59' W 130°08'1915.4
2016-Jun-21 03:20N 30°44' W 130°22'2614.8
2016-Jun-21 01:33N 30°23' W 130°40'1512.0
2016-Jun-21 00:19N 30°11' W 130°51'  

Dump ship's entire track history